createdAt,value
2023-01-19T00:00:46.615Z,2.03
2023-01-19T00:01:46.617Z,2.03
2023-01-19T00:02:46.631Z,2.01
2023-01-19T00:03:46.596Z,2.00
2023-01-19T00:04:46.576Z,2.00
2023-01-19T00:05:46.634Z,2.01
2023-01-19T00:06:46.555Z,1.98
2023-01-19T00:07:46.553Z,2.01
2023-01-19T00:08:46.573Z,1.98
2023-01-19T00:09:46.536Z,2.01
2023-01-19T00:10:46.514Z,2.03
2023-01-19T00:11:46.544Z,2.01
2023-01-19T00:12:46.517Z,2.01
2023-01-19T00:13:46.493Z,2.04
2023-01-19T00:14:46.478Z,2.01
2023-01-19T00:15:46.466Z,2.04
2023-01-19T00:16:46.472Z,1.98
2023-01-19T00:17:46.451Z,2.01
2023-01-19T00:18:46.435Z,2.01
2023-01-19T00:19:46.422Z,2.00
2023-01-19T00:20:46.433Z,1.98
2023-01-19T00:21:46.423Z,2.03
2023-01-19T00:22:46.391Z,2.00
2023-01-19T00:23:46.392Z,2.00
2023-01-19T00:24:46.371Z,2.00
2023-01-19T00:25:46.373Z,1.97
2023-01-19T00:26:46.400Z,1.95
2023-01-19T00:27:46.351Z,1.98
2023-01-19T00:28:46.334Z,2.01
2023-01-19T00:29:46.328Z,2.00
2023-01-19T00:30:46.314Z,1.98
2023-01-19T00:31:46.402Z,2.01
2023-01-19T00:32:46.289Z,2.03
2023-01-19T00:33:46.280Z,2.01
2023-01-19T00:34:46.279Z,2.04
2023-01-19T00:35:46.259Z,2.04
2023-01-19T00:36:46.300Z,2.04
2023-01-19T00:37:46.316Z,2.04
2023-01-19T00:38:46.281Z,2.04
2023-01-19T00:39:46.288Z,2.10
2023-01-19T00:40:46.246Z,2.05
2023-01-19T00:41:46.263Z,2.12
2023-01-19T00:42:46.236Z,2.10
2023-01-19T00:43:46.247Z,2.10
2023-01-19T00:44:46.239Z,2.08
2023-01-19T00:45:46.262Z,2.12
2023-01-19T00:46:46.251Z,2.12
2023-01-19T00:47:46.198Z,2.15
2023-01-19T00:48:46.262Z,2.14
2023-01-19T00:49:46.169Z,2.16
2023-01-19T00:50:46.158Z,2.14
2023-01-19T00:51:46.155Z,2.18
2023-01-19T00:52:46.118Z,2.18
2023-01-19T00:53:46.119Z,2.16
2023-01-19T00:54:46.148Z,2.18
2023-01-19T00:55:46.101Z,2.18
2023-01-19T00:56:46.098Z,2.18
2023-01-19T00:57:46.097Z,2.18
2023-01-19T00:58:46.056Z,2.21
2023-01-19T00:59:46.059Z,2.21
2023-01-19T01:00:46.098Z,2.19
2023-01-19T01:01:46.627Z,2.22
2023-01-19T01:02:46.193Z,2.21
2023-01-19T01:03:46.011Z,2.22
2023-01-19T01:04:45.983Z,2.23
2023-01-19T01:05:45.988Z,2.22
2023-01-19T01:06:45.967Z,2.28
2023-01-19T01:07:45.937Z,2.26
2023-01-19T01:08:45.922Z,2.28
2023-01-19T01:09:45.925Z,2.26
2023-01-19T01:10:45.913Z,2.28
2023-01-19T01:11:45.916Z,2.28
2023-01-19T01:12:56.060Z,2.28
2023-01-19T01:13:46.885Z,2.28
2023-01-19T01:14:45.864Z,2.30
2023-01-19T01:15:45.867Z,2.30
2023-01-19T01:16:45.951Z,2.33
2023-01-19T01:17:45.842Z,2.32
2023-01-19T01:18:45.846Z,2.32
2023-01-19T01:19:45.828Z,2.33
2023-01-19T01:20:45.837Z,2.30
2023-01-19T01:21:45.824Z,2.34
2023-01-19T01:22:45.814Z,2.32
2023-01-19T01:23:45.795Z,2.33
2023-01-19T01:24:45.806Z,2.34
2023-01-19T01:25:45.811Z,2.34
2023-01-19T01:26:45.762Z,2.37
2023-01-19T01:27:45.757Z,2.37
2023-01-19T01:28:45.729Z,2.34
2023-01-19T01:29:45.730Z,2.37
2023-01-19T01:30:45.712Z,2.37
2023-01-19T01:31:45.728Z,2.36
2023-01-19T01:32:45.728Z,2.39
2023-01-19T01:33:45.675Z,2.39
2023-01-19T01:34:45.662Z,2.39
2023-01-19T01:35:45.651Z,2.41
2023-01-19T01:36:45.639Z,2.40
2023-01-19T01:37:45.644Z,2.41
2023-01-19T01:38:45.667Z,2.41
2023-01-19T01:39:45.613Z,2.40
2023-01-19T01:40:45.588Z,2.39
2023-01-19T01:41:45.590Z,2.39
2023-01-19T01:42:45.646Z,2.39
2023-01-19T01:43:45.587Z,2.39
2023-01-19T01:44:45.576Z,2.37
2023-01-19T01:45:45.584Z,2.36
2023-01-19T01:46:45.558Z,2.36
2023-01-19T01:47:45.548Z,2.37
2023-01-19T01:48:45.618Z,2.34
2023-01-19T01:49:45.510Z,2.36
2023-01-19T01:50:45.487Z,2.34
2023-01-19T01:51:45.483Z,2.36
2023-01-19T01:53:06.503Z,2.36
2023-01-19T01:53:46.458Z,2.36
2023-01-19T01:54:45.446Z,2.36
2023-01-19T01:55:45.439Z,2.37
2023-01-19T01:56:45.526Z,2.36
2023-01-19T01:57:45.447Z,2.36
2023-01-19T01:58:45.406Z,2.37
2023-01-19T01:59:45.392Z,2.40
2023-01-19T02:00:45.418Z,2.40
2023-01-19T02:01:45.456Z,2.39
2023-01-19T02:02:45.376Z,2.39
2023-01-19T02:03:45.358Z,2.40
2023-01-19T02:04:45.349Z,2.41
2023-01-19T02:05:45.353Z,2.43
2023-01-19T02:06:45.323Z,2.43
2023-01-19T02:07:45.350Z,2.41
2023-01-19T02:08:45.305Z,2.44
2023-01-19T02:09:45.292Z,2.46
2023-01-19T02:10:45.296Z,2.44
2023-01-19T02:11:45.274Z,2.46
2023-01-19T02:12:45.273Z,2.47
2023-01-19T02:13:45.283Z,2.50
2023-01-19T02:14:45.234Z,2.51
2023-01-19T02:15:45.223Z,2.47
2023-01-19T02:16:45.271Z,2.51
2023-01-19T02:17:45.240Z,2.52
2023-01-19T02:18:45.214Z,2.51
2023-01-19T02:19:45.182Z,2.54
2023-01-19T02:20:45.173Z,2.52
2023-01-19T02:21:45.159Z,2.52
2023-01-19T02:22:45.157Z,2.54
2023-01-19T02:23:45.149Z,2.55
2023-01-19T02:24:45.141Z,2.54
2023-01-19T02:25:45.112Z,2.54
2023-01-19T02:26:45.114Z,2.55
2023-01-19T02:27:45.107Z,2.55
2023-01-19T02:28:45.107Z,2.55
2023-01-19T02:29:45.081Z,2.55
2023-01-19T02:30:45.091Z,2.55
2023-01-19T02:31:45.051Z,2.57
2023-01-19T02:32:45.063Z,2.57
2023-01-19T02:33:45.043Z,2.58
2023-01-19T02:34:45.019Z,2.59
2023-01-19T02:35:45.014Z,2.59
2023-01-19T02:36:45.012Z,2.59
2023-01-19T02:37:44.990Z,2.64
2023-01-19T02:38:44.989Z,2.61
2023-01-19T02:39:44.972Z,2.65
2023-01-19T02:40:44.959Z,2.64
2023-01-19T02:41:44.948Z,2.62
2023-01-19T02:42:44.938Z,2.62
2023-01-19T02:43:44.949Z,2.65
2023-01-19T02:44:44.930Z,2.64
2023-01-19T02:45:44.942Z,2.64
2023-01-19T02:46:44.908Z,2.62
2023-01-19T02:47:44.898Z,2.64
2023-01-19T02:48:44.886Z,2.65
2023-01-19T02:49:44.861Z,2.65
2023-01-19T02:50:44.870Z,2.65
2023-01-19T02:51:44.855Z,2.69
2023-01-19T02:52:44.852Z,2.68
2023-01-19T02:53:44.846Z,2.68
2023-01-19T02:54:44.835Z,2.65
2023-01-19T02:55:44.851Z,2.65
2023-01-19T02:56:44.805Z,2.64
2023-01-19T02:57:44.791Z,2.69
2023-01-19T02:58:44.801Z,2.68
2023-01-19T02:59:44.779Z,2.69
2023-01-19T03:00:44.766Z,2.69
2023-01-19T03:01:44.955Z,2.65
2023-01-19T03:02:45.070Z,2.68
2023-01-19T03:03:44.745Z,2.69
2023-01-19T03:04:44.715Z,2.65
2023-01-19T03:05:44.693Z,2.69
2023-01-19T03:06:44.701Z,2.69
2023-01-19T03:07:44.693Z,2.68
2023-01-19T03:08:44.713Z,2.69
2023-01-19T03:09:44.653Z,2.69
2023-01-19T03:10:44.657Z,2.72
2023-01-19T03:11:44.633Z,2.72
2023-01-19T03:12:44.623Z,2.72
2023-01-19T03:13:44.636Z,2.73
2023-01-19T03:14:44.614Z,2.72
2023-01-19T03:15:44.666Z,2.75
2023-01-19T03:16:44.623Z,2.72
2023-01-19T03:17:44.591Z,2.72
2023-01-19T03:18:44.598Z,2.75
2023-01-19T03:19:44.558Z,2.72
2023-01-19T03:20:44.560Z,2.72
2023-01-19T03:21:44.534Z,2.75
2023-01-19T03:22:44.529Z,2.72
2023-01-19T03:23:44.531Z,2.76
2023-01-19T03:24:44.527Z,2.75
2023-01-19T03:25:44.510Z,2.73
2023-01-19T03:26:44.487Z,2.77
2023-01-19T03:27:44.465Z,2.73
2023-01-19T03:28:44.492Z,2.75
2023-01-19T03:29:44.464Z,2.75
2023-01-19T03:30:44.458Z,2.73
2023-01-19T03:31:44.419Z,2.75
2023-01-19T03:32:44.432Z,2.73
2023-01-19T03:33:44.422Z,2.75
2023-01-19T03:34:44.404Z,2.76
2023-01-19T03:35:44.404Z,2.73
2023-01-19T03:36:44.398Z,2.72
2023-01-19T03:37:44.366Z,2.73
2023-01-19T03:38:44.404Z,2.72
2023-01-19T03:39:44.356Z,2.75
2023-01-19T03:40:44.339Z,2.69
2023-01-19T03:41:44.367Z,2.72
2023-01-19T03:42:44.321Z,2.73
2023-01-19T03:43:44.311Z,2.70
2023-01-19T03:44:44.298Z,2.72
2023-01-19T03:45:44.277Z,2.72
2023-01-19T03:46:44.269Z,2.69
2023-01-19T03:47:44.258Z,2.70
2023-01-19T03:48:44.267Z,2.69
2023-01-19T03:49:44.239Z,2.68
2023-01-19T03:50:44.237Z,2.68
2023-01-19T03:51:44.217Z,2.70
2023-01-19T03:52:44.234Z,2.69
2023-01-19T03:53:44.240Z,2.69
2023-01-19T03:54:44.204Z,2.68
2023-01-19T03:55:44.210Z,2.70
2023-01-19T03:56:44.194Z,2.69
2023-01-19T03:57:44.187Z,2.72
2023-01-19T03:58:44.178Z,2.72
2023-01-19T03:59:44.137Z,2.72
2023-01-19T04:00:44.139Z,2.68
2023-01-19T04:01:44.279Z,2.69
2023-01-19T04:02:44.209Z,2.68
2023-01-19T04:03:44.116Z,2.72
2023-01-19T04:04:44.135Z,2.72
2023-01-19T04:05:44.065Z,2.70
2023-01-19T04:06:44.077Z,2.70
2023-01-19T04:07:44.087Z,2.72
2023-01-19T04:08:44.045Z,2.73
2023-01-19T04:09:44.057Z,2.72
2023-01-19T04:10:44.016Z,2.72
2023-01-19T04:11:44.011Z,2.73
2023-01-19T04:12:43.994Z,2.73
2023-01-19T04:13:43.980Z,2.73
2023-01-19T04:14:44.007Z,2.75
2023-01-19T04:15:43.968Z,2.77
2023-01-19T04:16:43.953Z,2.75
2023-01-19T04:17:43.969Z,2.76
2023-01-19T04:18:43.938Z,2.75
2023-01-19T04:19:43.936Z,2.76
2023-01-19T04:20:43.923Z,2.79
2023-01-19T04:21:43.901Z,2.79
2023-01-19T04:22:43.892Z,2.79
2023-01-19T04:23:43.882Z,2.79
2023-01-19T04:24:43.876Z,2.80
2023-01-19T04:25:43.850Z,2.82
2023-01-19T04:26:43.860Z,2.82
2023-01-19T04:27:43.830Z,2.82
2023-01-19T04:28:43.819Z,2.80
2023-01-19T04:29:43.820Z,2.82
2023-01-19T04:30:43.821Z,2.82
2023-01-19T04:31:43.786Z,2.83
2023-01-19T04:32:43.779Z,2.83
2023-01-19T04:33:43.760Z,2.83
2023-01-19T04:34:43.762Z,2.80
2023-01-19T04:35:43.739Z,2.83
2023-01-19T04:36:43.761Z,2.83
2023-01-19T04:37:43.720Z,2.83
2023-01-19T04:38:43.723Z,2.80
2023-01-19T04:39:43.722Z,2.80
2023-01-19T04:40:43.699Z,2.82
2023-01-19T04:41:43.683Z,2.80
2023-01-19T04:42:43.681Z,2.76
2023-01-19T04:43:43.679Z,2.79
2023-01-19T04:44:43.657Z,2.76
2023-01-19T04:45:43.649Z,2.75
2023-01-19T04:46:43.710Z,2.76
2023-01-19T04:47:43.627Z,2.72
2023-01-19T04:48:43.613Z,2.72
2023-01-19T04:49:43.611Z,2.73
2023-01-19T04:50:43.610Z,2.72
2023-01-19T04:51:43.569Z,2.70
2023-01-19T04:52:43.569Z,2.70
2023-01-19T04:53:43.580Z,2.69
2023-01-19T04:54:43.557Z,2.65
2023-01-19T04:55:43.534Z,2.64
2023-01-19T04:56:43.525Z,2.64
2023-01-19T04:57:43.522Z,2.65
2023-01-19T04:58:43.525Z,2.64
2023-01-19T04:59:43.494Z,2.62
2023-01-19T05:00:43.484Z,2.61
2023-01-19T05:01:43.477Z,2.61
2023-01-19T05:02:43.470Z,2.58
2023-01-19T05:03:43.446Z,2.61
2023-01-19T05:04:43.455Z,2.59
2023-01-19T05:05:43.437Z,2.59
2023-01-19T05:06:43.424Z,2.59
2023-01-19T05:07:43.433Z,2.59
2023-01-19T05:08:45.253Z,2.58
2023-01-19T05:09:43.413Z,2.52
2023-01-19T05:10:43.372Z,2.57
2023-01-19T05:11:43.392Z,2.57
2023-01-19T05:12:43.361Z,2.54
2023-01-19T05:13:43.352Z,2.54
2023-01-19T05:14:43.379Z,2.55
2023-01-19T05:15:43.330Z,2.55
2023-01-19T05:16:43.353Z,2.52
2023-01-19T05:17:43.313Z,2.55
2023-01-19T05:18:43.302Z,2.52
2023-01-19T05:19:43.295Z,2.54
2023-01-19T05:20:43.300Z,2.51
2023-01-19T05:21:43.268Z,2.52
2023-01-19T05:22:43.263Z,2.50
2023-01-19T05:23:43.250Z,2.51
2023-01-19T05:24:43.252Z,2.50
2023-01-19T05:25:43.232Z,2.52
2023-01-19T05:26:43.219Z,2.47
2023-01-19T05:27:43.200Z,2.47
2023-01-19T05:28:43.199Z,2.47
2023-01-19T05:29:43.194Z,2.47
2023-01-19T05:30:43.207Z,2.50
2023-01-19T05:31:43.207Z,2.46
2023-01-19T05:32:43.160Z,2.47
2023-01-19T05:33:43.153Z,2.46
2023-01-19T05:34:43.143Z,2.47
2023-01-19T05:35:43.120Z,2.46
2023-01-19T05:36:43.111Z,2.46
2023-01-19T05:37:43.103Z,2.47
2023-01-19T05:38:43.102Z,2.44
2023-01-19T05:39:43.080Z,2.44
2023-01-19T05:40:43.089Z,2.44
2023-01-19T05:41:43.059Z,2.46
2023-01-19T05:42:43.056Z,2.44
2023-01-19T05:43:43.076Z,2.46
2023-01-19T05:44:43.028Z,2.44
2023-01-19T05:45:43.021Z,2.46
2023-01-19T05:46:43.058Z,2.44
2023-01-19T05:47:42.995Z,2.44
2023-01-19T05:48:42.992Z,2.44
2023-01-19T05:49:42.988Z,2.46
2023-01-19T05:50:42.976Z,2.44
2023-01-19T05:51:42.948Z,2.47
2023-01-19T05:52:42.957Z,2.44
2023-01-19T05:53:42.936Z,2.46
2023-01-19T05:54:42.927Z,2.43
2023-01-19T05:55:42.944Z,2.41
2023-01-19T05:56:42.918Z,2.43
2023-01-19T05:57:42.889Z,2.43
2023-01-19T05:58:42.889Z,2.41
2023-01-19T05:59:42.886Z,2.43
2023-01-19T06:00:42.875Z,2.43
2023-01-19T06:01:42.932Z,2.41
2023-01-19T06:02:42.910Z,2.41
2023-01-19T06:03:42.837Z,2.43
2023-01-19T06:04:42.824Z,2.43
2023-01-19T06:05:42.821Z,2.47
2023-01-19T06:06:42.809Z,2.44
2023-01-19T06:07:42.797Z,2.44
2023-01-19T06:08:42.826Z,2.47
2023-01-19T06:09:42.783Z,2.46
2023-01-19T06:10:42.779Z,2.44
2023-01-19T06:11:42.767Z,2.44
2023-01-19T06:12:42.750Z,2.47
2023-01-19T06:13:42.796Z,2.43
2023-01-19T06:14:42.730Z,2.44
2023-01-19T06:15:42.737Z,2.44
2023-01-19T06:16:42.811Z,2.44
2023-01-19T06:17:42.713Z,2.46
2023-01-19T06:18:42.702Z,2.46
2023-01-19T06:19:42.666Z,2.43
2023-01-19T06:20:42.668Z,2.44
2023-01-19T06:21:42.646Z,2.44
2023-01-19T06:22:42.636Z,2.46
2023-01-19T06:23:42.631Z,2.47
2023-01-19T06:24:42.626Z,2.44
2023-01-19T06:25:42.661Z,2.46
2023-01-19T06:26:42.610Z,2.43
2023-01-19T06:27:42.581Z,2.44
2023-01-19T06:28:42.585Z,2.43
2023-01-19T06:29:42.689Z,2.44
2023-01-19T06:30:42.593Z,2.46
2023-01-19T06:31:42.604Z,2.41
2023-01-19T06:32:42.536Z,2.43
2023-01-19T06:33:42.524Z,2.43
2023-01-19T06:34:42.501Z,2.40
2023-01-19T06:35:42.520Z,2.43
2023-01-19T06:36:42.487Z,2.43
2023-01-19T06:37:42.480Z,2.41
2023-01-19T06:38:42.479Z,2.44
2023-01-19T06:39:42.463Z,2.44
2023-01-19T06:40:42.517Z,2.46
2023-01-19T06:41:42.464Z,2.43
2023-01-19T06:42:42.419Z,2.43
2023-01-19T06:43:42.418Z,2.44
2023-01-19T06:44:42.398Z,2.43
2023-01-19T06:45:44.528Z,2.46
2023-01-19T06:46:42.445Z,2.46
2023-01-19T06:47:42.379Z,2.46
2023-01-19T06:48:42.452Z,2.44
2023-01-19T06:49:42.401Z,2.44
2023-01-19T06:50:42.336Z,2.44
2023-01-19T06:51:42.337Z,2.43
2023-01-19T06:52:42.496Z,2.46
2023-01-19T06:53:42.352Z,2.43
2023-01-19T06:54:42.307Z,2.46
2023-01-19T06:55:42.304Z,2.44
2023-01-19T06:56:42.278Z,2.43
2023-01-19T06:57:42.275Z,2.41
2023-01-19T06:58:42.256Z,2.44
2023-01-19T06:59:42.213Z,2.44
2023-01-19T07:00:42.260Z,2.43
2023-01-19T07:01:42.326Z,2.43
2023-01-19T07:02:42.287Z,2.40
2023-01-19T07:03:42.184Z,2.44
2023-01-19T07:04:42.276Z,2.41
2023-01-19T07:05:42.143Z,2.41
2023-01-19T07:06:42.119Z,2.41
2023-01-19T07:07:42.166Z,2.43
2023-01-19T07:08:42.095Z,2.41
2023-01-19T07:09:42.159Z,2.41
2023-01-19T07:11:24.563Z,2.43
2023-01-19T07:11:43.066Z,2.41
2023-01-19T07:12:42.062Z,2.43
2023-01-19T07:13:42.051Z,2.43
2023-01-19T07:14:42.035Z,2.41
2023-01-19T07:15:42.033Z,2.43
2023-01-19T07:16:42.039Z,2.43
2023-01-19T07:17:42.050Z,2.44
2023-01-19T07:18:41.985Z,2.44
2023-01-19T07:19:41.982Z,2.43
2023-01-19T07:20:42.018Z,2.41
2023-01-19T07:21:41.961Z,2.41
2023-01-19T07:22:41.957Z,2.41
2023-01-19T07:23:41.942Z,2.41
2023-01-19T07:24:41.925Z,2.41
2023-01-19T07:25:41.952Z,2.41
2023-01-19T07:26:41.904Z,2.43
2023-01-19T07:27:41.904Z,2.43
2023-01-19T07:28:41.890Z,2.43
2023-01-19T07:29:41.880Z,2.43
2023-01-19T07:30:41.924Z,2.41
2023-01-19T07:31:41.955Z,2.43
2023-01-19T07:32:41.843Z,2.44
2023-01-19T07:33:41.839Z,2.47
2023-01-19T07:34:41.923Z,2.46
2023-01-19T07:35:41.840Z,2.44
2023-01-19T07:36:41.811Z,2.43
2023-01-19T07:37:41.799Z,2.46
2023-01-19T07:38:41.805Z,2.44
2023-01-19T07:39:41.778Z,2.47
2023-01-19T07:40:41.802Z,2.47
2023-01-19T07:41:41.760Z,2.46
2023-01-19T07:42:41.760Z,2.47
2023-01-19T07:43:41.735Z,2.47
2023-01-19T07:44:41.732Z,2.44
2023-01-19T07:45:41.752Z,2.47
2023-01-19T07:46:41.700Z,2.47
2023-01-19T07:47:41.690Z,2.46
2023-01-19T07:48:41.679Z,2.47
2023-01-19T07:49:41.669Z,2.50
2023-01-19T07:50:41.668Z,2.46
2023-01-19T07:51:41.659Z,2.50
2023-01-19T07:52:41.637Z,2.50
2023-01-19T07:53:41.629Z,2.50
2023-01-19T07:54:41.615Z,2.47
2023-01-19T07:55:41.634Z,2.50
2023-01-19T07:56:41.605Z,2.50
2023-01-19T07:57:41.592Z,2.51
2023-01-19T07:58:41.581Z,2.51
2023-01-19T07:59:41.574Z,2.51
2023-01-19T08:00:41.545Z,2.51
2023-01-19T08:01:41.731Z,2.52
2023-01-19T08:02:41.529Z,2.52
2023-01-19T08:03:41.526Z,2.52
2023-01-19T08:04:41.519Z,2.54
2023-01-19T08:05:41.502Z,2.54
2023-01-19T08:06:41.496Z,2.57
2023-01-19T08:07:41.519Z,2.55
2023-01-19T08:08:41.456Z,2.55
2023-01-19T08:09:41.466Z,2.57
2023-01-19T08:10:41.457Z,2.55
2023-01-19T08:11:41.438Z,2.57
2023-01-19T08:12:41.434Z,2.57
2023-01-19T08:13:41.414Z,2.59
2023-01-19T08:14:41.398Z,2.58
2023-01-19T08:15:41.450Z,2.57
2023-01-19T08:16:41.418Z,2.61
2023-01-19T08:17:41.363Z,2.61
2023-01-19T08:18:41.352Z,2.59
2023-01-19T08:19:41.645Z,2.59
2023-01-19T08:20:41.356Z,2.59
2023-01-19T08:21:41.338Z,2.61
2023-01-19T08:22:41.319Z,2.61
2023-01-19T08:23:41.433Z,2.61
2023-01-19T08:24:41.314Z,2.59
2023-01-19T08:25:41.332Z,2.64
2023-01-19T08:26:41.325Z,2.65
2023-01-19T08:27:41.281Z,2.61
2023-01-19T08:28:41.260Z,2.65
2023-01-19T08:29:41.283Z,2.62
2023-01-19T08:30:41.360Z,2.68
2023-01-19T08:31:41.332Z,2.64
2023-01-19T08:32:41.202Z,2.65
2023-01-19T08:33:41.204Z,2.70
2023-01-19T08:34:41.185Z,2.68
2023-01-19T08:35:41.195Z,2.68
2023-01-19T08:36:41.187Z,2.65
2023-01-19T08:37:41.199Z,2.70
2023-01-19T08:38:41.151Z,2.68
2023-01-19T08:39:41.146Z,2.72
2023-01-19T08:40:41.131Z,2.70
2023-01-19T08:41:41.133Z,2.72
2023-01-19T08:42:41.134Z,2.70
2023-01-19T08:43:41.098Z,2.72
2023-01-19T08:44:49.653Z,2.70
2023-01-19T08:45:42.079Z,2.73
2023-01-19T08:46:41.128Z,2.72
2023-01-19T08:47:41.083Z,2.75
2023-01-19T08:48:41.048Z,2.76
2023-01-19T08:49:41.039Z,2.76
2023-01-19T08:50:41.073Z,2.73
2023-01-19T08:51:41.052Z,2.76
2023-01-19T08:52:41.036Z,2.79
2023-01-19T08:53:41.076Z,2.77
2023-01-19T08:54:40.977Z,2.79
2023-01-19T08:55:40.983Z,2.79
2023-01-19T08:56:41.078Z,2.79
2023-01-19T08:57:40.959Z,2.80
2023-01-19T08:58:40.961Z,2.82
2023-01-19T08:59:40.975Z,2.82
2023-01-19T09:00:40.949Z,2.80
2023-01-19T09:01:41.018Z,2.82
2023-01-19T09:02:40.975Z,2.80
2023-01-19T09:03:40.887Z,2.80
2023-01-19T09:04:40.873Z,2.82
2023-01-19T09:05:40.888Z,2.83
2023-01-19T09:06:40.845Z,2.82
2023-01-19T09:07:40.844Z,2.83
2023-01-19T09:08:40.826Z,2.85
2023-01-19T09:09:40.833Z,2.85
2023-01-19T09:10:40.804Z,2.87
2023-01-19T09:11:40.803Z,2.88
2023-01-19T09:12:40.806Z,2.85
2023-01-19T09:13:40.773Z,2.85
2023-01-19T09:14:40.805Z,2.83
2023-01-19T09:15:40.875Z,2.87
2023-01-19T09:16:40.742Z,2.85
2023-01-19T09:17:40.755Z,2.87
2023-01-19T09:18:40.731Z,2.88
2023-01-19T09:19:40.745Z,2.90
2023-01-19T09:20:40.693Z,2.88
2023-01-19T09:21:40.692Z,2.88
2023-01-19T09:22:40.686Z,2.90
2023-01-19T09:23:40.671Z,2.90
2023-01-19T09:24:40.657Z,2.90
2023-01-19T09:25:40.655Z,2.94
2023-01-19T09:26:40.715Z,2.93
2023-01-19T09:27:40.641Z,2.91
2023-01-19T09:28:40.627Z,2.95
2023-01-19T09:29:40.618Z,2.97
2023-01-19T09:30:40.607Z,2.95
2023-01-19T09:31:40.626Z,2.95
2023-01-19T09:32:40.572Z,2.95
2023-01-19T09:33:40.561Z,2.98
2023-01-19T09:34:40.559Z,2.97
2023-01-19T09:35:40.558Z,3.00
2023-01-19T09:36:40.543Z,3.01
2023-01-19T09:37:40.544Z,3.05
2023-01-19T09:38:40.512Z,3.03
2023-01-19T09:39:40.551Z,3.06
2023-01-19T09:40:42.091Z,3.05
2023-01-19T09:41:40.478Z,3.08
2023-01-19T09:42:40.472Z,3.08
2023-01-19T09:43:40.462Z,3.09
2023-01-19T09:44:40.449Z,3.12
2023-01-19T09:45:40.439Z,3.11
2023-01-19T09:46:40.475Z,3.15
2023-01-19T09:47:40.443Z,3.15
2023-01-19T09:48:40.412Z,3.13
2023-01-19T09:49:40.411Z,3.18
2023-01-19T09:50:40.390Z,3.18
2023-01-19T09:51:40.372Z,3.18
2023-01-19T09:52:40.357Z,3.18
2023-01-19T09:53:40.363Z,3.19
2023-01-19T09:54:40.371Z,3.21
2023-01-19T09:55:40.328Z,3.21
2023-01-19T09:56:40.337Z,3.22
2023-01-19T09:57:40.317Z,3.26
2023-01-19T09:58:40.297Z,3.26
2023-01-19T09:59:40.286Z,3.27
2023-01-19T10:00:40.315Z,3.30
2023-01-19T10:01:40.320Z,3.33
2023-01-19T10:02:40.338Z,3.33
2023-01-19T10:03:40.255Z,3.34
2023-01-19T10:04:40.235Z,3.37
2023-01-19T10:05:40.225Z,3.40
2023-01-19T10:06:40.205Z,3.41
2023-01-19T10:07:40.204Z,3.43
2023-01-19T10:08:40.183Z,3.48
2023-01-19T10:09:40.195Z,3.48
2023-01-19T10:10:40.175Z,3.49
2023-01-19T10:11:51.808Z,3.49
2023-01-19T10:12:41.200Z,3.53
2023-01-19T10:13:40.165Z,3.55
2023-01-19T10:14:40.134Z,3.56
2023-01-19T10:15:40.174Z,3.56
2023-01-19T10:16:40.103Z,3.61
2023-01-19T10:17:40.093Z,3.64
2023-01-19T10:18:40.086Z,3.64
2023-01-19T10:19:40.093Z,3.66
2023-01-19T10:20:40.056Z,3.71
2023-01-19T10:21:40.084Z,3.73
2023-01-19T10:22:40.095Z,3.73
2023-01-19T10:23:40.057Z,3.76
2023-01-19T10:24:40.028Z,3.77
2023-01-19T10:25:40.105Z,3.78
2023-01-19T10:26:40.002Z,3.77
2023-01-19T10:27:40.009Z,3.82
2023-01-19T10:28:40.016Z,3.82
2023-01-19T10:29:40.035Z,3.85
2023-01-19T10:30:40.061Z,3.88
2023-01-19T10:31:40.116Z,3.89
2023-01-19T10:32:39.973Z,3.88
2023-01-19T10:33:40.033Z,3.86
2023-01-19T10:34:39.951Z,3.92
2023-01-19T10:35:39.941Z,3.95
2023-01-19T10:36:39.926Z,3.95
2023-01-19T10:37:39.958Z,3.95
2023-01-19T10:38:39.927Z,3.96
2023-01-19T10:39:39.984Z,3.99
2023-01-19T10:40:39.955Z,3.96
2023-01-19T10:41:39.901Z,3.99
2023-01-19T10:42:39.907Z,4.00
2023-01-19T10:43:39.857Z,4.00
2023-01-19T10:44:39.900Z,3.99
2023-01-19T10:45:39.832Z,3.99
2023-01-19T10:46:39.885Z,3.96
2023-01-19T10:47:39.895Z,3.96
2023-01-19T10:48:39.787Z,3.95
2023-01-19T10:49:39.832Z,3.96
2023-01-19T10:50:39.992Z,3.95
2023-01-19T10:51:39.761Z,3.96
2023-01-19T10:52:39.858Z,3.99
2023-01-19T10:53:39.762Z,4.03
2023-01-19T10:54:39.764Z,4.02
2023-01-19T10:55:39.739Z,4.02
2023-01-19T10:56:39.733Z,4.00
2023-01-19T10:57:39.704Z,4.00
2023-01-19T10:58:39.676Z,4.00
2023-01-19T10:59:39.803Z,4.03
2023-01-19T11:00:39.751Z,4.03
2023-01-19T11:01:39.812Z,4.06
2023-01-19T11:02:39.766Z,4.13
2023-01-19T11:03:39.649Z,4.16
2023-01-19T11:04:39.646Z,4.20
2023-01-19T11:05:39.610Z,4.20
2023-01-19T11:06:39.597Z,4.20
2023-01-19T11:07:39.589Z,4.21
2023-01-19T11:08:39.588Z,4.21
2023-01-19T11:09:39.556Z,4.22
2023-01-19T11:10:39.548Z,4.25
2023-01-19T11:11:39.542Z,4.27
2023-01-19T11:12:39.614Z,4.28
2023-01-19T11:13:39.542Z,4.32
2023-01-19T11:14:39.524Z,4.36
2023-01-19T11:15:39.511Z,4.40
2023-01-19T11:16:39.554Z,4.40
2023-01-19T11:17:39.473Z,4.43
2023-01-19T11:18:39.505Z,4.42
2023-01-19T11:19:39.464Z,4.45
2023-01-19T11:20:39.444Z,4.46
2023-01-19T11:21:39.442Z,4.45
2023-01-19T11:22:39.432Z,4.46
2023-01-19T11:23:39.455Z,4.49
2023-01-19T11:24:39.412Z,4.49
2023-01-19T11:25:39.392Z,4.53
2023-01-19T11:26:39.397Z,4.50
2023-01-19T11:27:39.376Z,4.56
2023-01-19T11:28:39.372Z,4.53
2023-01-19T11:29:39.360Z,4.57
2023-01-19T11:30:39.397Z,4.58
2023-01-19T11:31:39.354Z,4.58
2023-01-19T11:32:39.333Z,4.57
2023-01-19T11:33:39.321Z,4.60
2023-01-19T11:34:39.310Z,4.58
2023-01-19T11:35:39.309Z,4.63
2023-01-19T11:36:39.310Z,4.66
2023-01-19T11:37:39.272Z,4.66
2023-01-19T11:38:39.262Z,4.71
2023-01-19T11:39:39.252Z,4.75
2023-01-19T11:40:39.244Z,4.76
2023-01-19T11:41:39.231Z,4.78
2023-01-19T11:42:39.249Z,4.84
2023-01-19T11:43:48.692Z,4.83
2023-01-19T11:44:40.251Z,4.86
2023-01-19T11:45:39.219Z,4.89
2023-01-19T11:46:39.184Z,4.90
2023-01-19T11:47:39.160Z,4.92
2023-01-19T11:48:39.152Z,4.94
2023-01-19T11:49:39.178Z,4.94
2023-01-19T11:50:39.182Z,4.94
2023-01-19T11:51:39.139Z,4.97
2023-01-19T11:52:39.123Z,4.98
2023-01-19T11:53:39.108Z,5.00
2023-01-19T11:54:39.111Z,5.04
2023-01-19T11:55:39.101Z,5.04
2023-01-19T11:56:39.108Z,5.04
2023-01-19T11:57:39.066Z,5.10
2023-01-19T11:58:39.063Z,5.10
2023-01-19T11:59:39.078Z,5.16
2023-01-19T12:00:39.036Z,5.18
2023-01-19T12:01:39.102Z,5.25
2023-01-19T12:02:39.022Z,5.29
2023-01-19T12:03:39.048Z,5.34
2023-01-19T12:04:39.028Z,5.34
2023-01-19T12:05:38.979Z,5.37
2023-01-19T12:06:38.967Z,5.40
2023-01-19T12:07:38.961Z,5.40
2023-01-19T12:08:38.958Z,5.43
2023-01-19T12:09:38.941Z,5.44
2023-01-19T12:10:38.926Z,5.44
2023-01-19T12:11:38.917Z,5.46
2023-01-19T12:12:38.928Z,5.47
2023-01-19T12:13:38.890Z,5.52
2023-01-19T12:14:38.901Z,5.49
2023-01-19T12:15:38.902Z,5.55
2023-01-19T12:16:38.964Z,5.55
2023-01-19T12:17:38.845Z,5.58
2023-01-19T12:18:38.846Z,5.55
2023-01-19T12:19:38.875Z,5.56
2023-01-19T12:20:38.828Z,5.58
2023-01-19T12:21:38.824Z,5.56
2023-01-19T12:22:38.805Z,5.58
2023-01-19T12:23:38.795Z,5.59
2023-01-19T12:24:38.870Z,5.64
2023-01-19T12:25:38.766Z,5.62
2023-01-19T12:26:38.775Z,5.64
2023-01-19T12:27:38.745Z,5.65
2023-01-19T12:28:38.753Z,5.59
2023-01-19T12:29:38.734Z,5.59
2023-01-19T12:30:38.846Z,5.58
2023-01-19T12:31:38.999Z,5.58
2023-01-19T12:32:38.693Z,5.59
2023-01-19T12:33:38.688Z,5.61
2023-01-19T12:34:38.701Z,5.64
2023-01-19T12:35:38.678Z,5.65
2023-01-19T12:36:38.674Z,5.64
2023-01-19T12:37:38.656Z,5.65
2023-01-19T12:38:38.634Z,5.65
2023-01-19T12:39:38.638Z,5.67
2023-01-19T12:40:38.637Z,5.67
2023-01-19T12:41:38.615Z,5.65
2023-01-19T12:42:38.591Z,5.62
2023-01-19T12:43:38.585Z,5.61
2023-01-19T12:44:38.622Z,5.56
2023-01-19T12:45:38.563Z,5.55
2023-01-19T12:46:38.551Z,5.51
2023-01-19T12:47:38.542Z,5.51
2023-01-19T12:48:38.543Z,5.51
2023-01-19T12:49:38.575Z,5.54
2023-01-19T12:50:38.526Z,5.62
2023-01-19T12:51:38.517Z,5.67
2023-01-19T12:52:38.494Z,5.70
2023-01-19T12:53:38.482Z,5.72
2023-01-19T12:54:38.479Z,5.76
2023-01-19T12:55:38.493Z,5.79
2023-01-19T12:56:38.444Z,5.80
2023-01-19T12:57:38.445Z,5.80
2023-01-19T12:58:38.460Z,5.79
2023-01-19T12:59:38.444Z,5.81
2023-01-19T13:00:38.400Z,5.79
2023-01-19T13:01:38.432Z,5.77
2023-01-19T13:02:38.415Z,5.79
2023-01-19T13:03:38.368Z,5.77
2023-01-19T13:04:38.379Z,5.76
2023-01-19T13:05:38.338Z,5.74
2023-01-19T13:06:38.338Z,5.72
2023-01-19T13:07:38.328Z,5.73
2023-01-19T13:08:38.330Z,5.70
2023-01-19T13:09:38.389Z,5.72
2023-01-19T13:10:38.295Z,5.72
2023-01-19T13:11:38.365Z,5.69
2023-01-19T13:12:38.284Z,5.72
2023-01-19T13:13:38.264Z,5.73
2023-01-19T13:14:38.290Z,5.74
2023-01-19T13:15:38.283Z,5.74
2023-01-19T13:16:38.265Z,5.77
2023-01-19T13:17:38.264Z,5.77
2023-01-19T13:18:38.211Z,5.79